Time;durP1;ratioP1;P1;durP2;ratioP2;P2;SDS_P1;SDS_P2;PMS_P1;PMS_P2;Temp;Humidity;BMP_temperature;BMP_pressure;BME280_temperature;BME280_humidity;BME280_pressure;Samples;Min_cycle;Max_cycle;Signal;HPM_P1;HPM_P2
2023/06/30 00:01:35;;;;;;;4.40;4.00;;;;;;;;;;5091530;28;20315;-49
2023/06/30 00:04:01;;;;;;;5.00;3.03;;;17.50;99.90;;;;;;5091160;28;20208;-50
2023/06/30 00:06:27;;;;;;;4.78;3.40;;;18.20;99.90;;;;;;5091723;28;20177;-50
2023/06/30 00:08:52;;;;;;;3.05;2.85;;;18.30;99.90;;;;;;5092066;28;20162;-49
2023/06/30 00:11:23;;;;;;;4.13;3.05;;;18.00;99.90;;;;;;5111953;28;20659;-50
2023/06/30 00:13:52;;;;;;;2.33;2.13;;;17.80;99.90;;;;;;5111589;28;20196;-49
2023/06/30 00:16:19;;;;;;;4.50;3.15;;;17.80;99.90;;;;;;5093458;28;20238;-50
2023/06/30 00:18:45;;;;;;;3.17;2.83;;;17.70;99.90;;;;;;5112376;28;20180;-50
2023/06/30 00:21:11;;;;;;;3.30;2.70;;;17.70;99.90;;;;;;5111763;28;20161;-49
2023/06/30 00:23:36;;;;;;;5.50;3.17;;;18.60;99.90;;;;;;5111847;28;20177;-49
2023/06/30 00:26:02;;;;;;;3.17;2.85;;;17.50;99.90;;;;;;5111645;28;20548;-49
2023/06/30 00:28:28;;;;;;;4.38;3.42;;;;;;;;;;5111611;28;20219;-50
2023/06/30 00:30:53;;;;;;;4.15;3.35;;;17.50;99.90;;;;;;5111623;28;20161;-50
2023/06/30 00:33:19;;;;;;;5.75;3.55;;;17.60;99.90;;;;;;5111489;28;20204;-49
2023/06/30 00:35:44;;;;;;;4.75;3.58;;;17.40;99.90;;;;;;5112052;28;20180;-50
2023/06/30 00:38:10;;;;;;;3.78;3.13;;;17.40;99.90;;;;;;5112882;28;20165;-50
2023/06/30 00:40:35;;;;;;;7.43;3.45;;;17.40;99.90;;;;;;5115330;28;20715;-49
2023/06/30 00:43:01;;;;;;;5.82;3.50;;;17.40;99.90;;;;;;5115300;28;20632;-50
2023/06/30 00:45:27;;;;;;;4.15;3.45;;;17.40;99.90;;;;;;5115490;28;20164;-49
2023/06/30 00:47:53;;;;;;;7.55;3.63;;;16.70;99.90;;;;;;5115217;28;20169;-49
2023/06/30 00:50:19;;;;;;;4.07;3.55;;;17.30;99.90;;;;;;5115289;28;20175;-49
2023/06/30 00:52:47;;;;;;;4.30;3.00;;;17.10;99.90;;;;;;5115577;28;20207;-49
2023/06/30 00:55:15;;;;;;;5.65;3.88;;;17.10;99.90;;;;;;5115821;28;20229;-49
2023/06/30 00:57:41;;;;;;;5.38;3.28;;;17.10;99.90;;;;;;5115004;28;20165;-49
2023/06/30 01:00:11;;;;;;;7.07;3.47;;;17.20;99.90;;;;;;5114932;28;20164;-50
2023/06/30 01:02:48;;;;;;;5.78;3.45;;;17.30;99.90;;;;;;5114889;28;20172;-49
2023/06/30 01:05:25;;;;;;;4.15;3.25;;;17.10;99.90;;;;;;5115324;28;20165;-49
2023/06/30 01:08:04;;;;;;;4.03;2.75;;;17.10;99.90;;;;;;5115118;28;20168;-49
2023/06/30 01:10:32;;;;;;;5.03;3.25;;;17.30;99.90;;;;;;5114564;28;20212;-49
2023/06/30 01:13:00;;;;;;;5.28;3.58;;;17.10;99.90;;;;;;5114652;28;20216;-49
2023/06/30 01:15:27;;;;;;;8.02;3.63;;;17.10;99.90;;;;;;5114648;28;20167;-49
2023/06/30 01:17:56;;;;;;;4.97;3.60;;;17.10;99.90;;;;;;5114648;28;20161;-49
2023/06/30 01:20:23;;;;;;;7.28;3.53;;;17.70;99.90;;;;;;5114589;28;20539;-49
2023/06/30 01:22:58;;;;;;;3.97;2.67;;;16.80;99.90;;;;;;5114780;28;20169;-49
2023/06/30 01:25:26;;;;;;;4.97;2.85;;;16.90;99.90;;;;;;5114533;28;20164;-50
2023/06/30 01:27:53;;;;;;;5.15;3.33;;;16.80;99.90;;;;;;5114455;28;20647;-50
2023/06/30 01:30:20;;;;;;;6.90;3.88;;;16.90;99.90;;;;;;5114661;28;20183;-50
2023/06/30 01:32:46;;;;;;;7.25;4.07;;;;;;;;;;5096388;28;20672;-50
2023/06/30 01:35:12;;;;;;;5.78;4.20;;;17.00;99.90;;;;;;5114720;28;20176;-49
2023/06/30 01:37:38;;;;;;;5.72;4.28;;;17.00;99.90;;;;;;5114278;28;20161;-49
2023/06/30 01:40:04;;;;;;;6.97;4.50;;;16.90;99.90;;;;;;5114225;28;20213;-49
2023/06/30 01:42:30;;;;;;;7.82;5.10;;;17.20;99.90;;;;;;5114158;28;20165;-50
2023/06/30 01:44:58;;;;;;;7.32;4.68;;;16.80;99.90;;;;;;5114194;28;20168;-49
2023/06/30 01:47:24;;;;;;;8.00;4.93;;;16.90;99.90;;;;;;5114109;28;20161;-49
2023/06/30 01:49:50;;;;;;;5.40;4.07;;;17.00;99.90;;;;;;5113097;28;20160;-50
2023/06/30 01:52:16;;;;;;;3.80;3.35;;;;;;;;;;5114337;28;20704;-50
2023/06/30 01:54:42;;;;;;;9.23;3.90;;;16.80;99.90;;;;;;5114449;28;20374;-49
2023/06/30 01:57:07;;;;;;;5.65;3.17;;;16.80;99.90;;;;;;5113932;28;20647;-49
2023/06/30 01:59:33;;;;;;;3.70;3.05;;;16.80;99.90;;;;;;5114040;28;20256;-50
2023/06/30 02:01:58;;;;;;;6.65;3.47;;;16.70;99.90;;;;;;5113737;28;20640;-49
2023/06/30 02:04:24;;;;;;;5.35;3.83;;;16.10;99.90;;;;;;5113776;28;20707;-49
2023/06/30 02:06:49;;;;;;;8.32;4.22;;;17.60;99.90;;;;;;5113938;28;20169;-49
2023/06/30 02:09:15;;;;;;;5.65;4.28;;;16.70;99.90;;;;;;5113659;28;20598;-49
2023/06/30 02:11:41;;;;;;;5.35;3.45;;;16.70;99.90;;;;;;5113582;28;20631;-49
2023/06/30 02:14:06;;;;;;;10.07;4.55;;;16.70;99.90;;;;;;5113492;28;20215;-49
2023/06/30 02:16:32;;;;;;;5.68;4.63;;;16.70;99.90;;;;;;5113482;28;20263;-49
2023/06/30 02:18:57;;;;;;;9.38;4.60;;;16.70;99.90;;;;;;5113439;28;20175;-49
2023/06/30 02:21:23;;;;;;;9.15;4.93;;;16.80;99.90;;;;;;5113431;28;20171;-50
2023/06/30 02:23:50;;;;;;;5.22;4.63;;;;;;;;;;5113343;28;20173;-50
2023/06/30 02:26:16;;;;;;;7.22;5.03;;;;;;;;;;5113635;28;20157;-50
2023/06/30 02:28:41;;;;;;;9.73;5.00;;;16.60;99.90;;;;;;5113661;28;20169;-50
2023/06/30 02:31:07;;;;;;;7.80;4.88;;;16.80;99.90;;;;;;5113492;28;20165;-50
2023/06/30 02:33:32;;;;;;;8.68;5.10;;;16.60;99.90;;;;;;5113157;28;20659;-50
2023/06/30 02:35:58;;;;;;;11.25;5.53;;;;;;;;;;5113177;28;20173;-50
2023/06/30 02:38:24;;;;;;;9.82;4.60;;;16.70;99.90;;;;;;5113040;28;20209;-50
2023/06/30 02:40:49;;;;;;;12.75;5.63;;;16.60;99.90;;;;;;5113105;28;20171;-50
2023/06/30 02:43:15;;;;;;;5.53;4.95;;;;;;;;;;5113375;28;20255;-50
2023/06/30 02:45:41;;;;;;;7.82;4.90;;;16.80;99.90;;;;;;5113523;28;20169;-49
2023/06/30 02:48:06;;;;;;;10.38;5.38;;;16.80;99.90;;;;;;5113169;28;20573;-49
2023/06/30 02:50:32;;;;;;;12.38;5.72;;;16.70;99.90;;;;;;5112817;28;20650;-49
2023/06/30 02:52:58;;;;;;;12.85;5.88;;;16.30;99.90;;;;;;5112941;28;20212;-49
2023/06/30 02:55:24;;;;;;;10.48;6.07;;;;;;;;;;5112981;28;20251;-49
2023/06/30 02:57:50;;;;;;;8.40;6.20;;;16.60;99.90;;;;;;5112710;28;20199;-49
2023/06/30 03:00:16;;;;;;;12.43;6.30;;;17.20;99.90;;;;;;5112644;28;20176;-49
2023/06/30 03:02:41;;;;;;;11.68;5.63;;;16.40;99.90;;;;;;5113174;28;20179;-49
2023/06/30 03:05:08;;;;;;;10.65;6.72;;;16.70;99.90;;;;;;5112570;28;20246;-49
2023/06/30 03:07:33;;;;;;;12.13;6.07;;;16.70;99.90;;;;;;5112836;28;20176;-49
2023/06/30 03:09:59;;;;;;;14.73;6.90;;;;;;;;;;5112306;28;20691;-49
2023/06/30 03:12:25;;;;;;;15.10;6.65;;;;;;;;;;5112478;28;20196;-49
2023/06/30 03:14:51;;;;;;;14.35;6.32;;;16.60;99.90;;;;;;5112346;28;20179;-49
2023/06/30 03:17:16;;;;;;;17.25;7.07;;;16.60;99.90;;;;;;5112663;28;20210;-50
2023/06/30 03:19:42;;;;;;;15.30;7.22;;;16.80;99.90;;;;;;5112770;28;20227;-49
2023/06/30 03:22:08;;;;;;;15.32;7.88;;;16.70;99.90;;;;;;5112228;28;20171;-49
2023/06/30 03:24:34;;;;;;;16.17;6.53;;;;;;;;;;5112267;28;20173;-49
2023/06/30 03:27:00;;;;;;;14.95;7.05;;;;;;;;;;5112246;28;20207;-49
2023/06/30 03:29:26;;;;;;;10.10;6.93;;;16.50;99.90;;;;;;5112174;28;20164;-49
2023/06/30 03:31:51;;;;;;;16.83;7.10;;;;;;;;;;5112208;28;20168;-50
2023/06/30 03:34:17;;;;;;;15.10;7.97;;;16.60;99.90;;;;;;5112069;28;20208;-50
2023/06/30 03:36:43;;;;;;;18.92;7.50;;;16.60;99.90;;;;;;5112587;28;20161;-50
2023/06/30 03:39:08;;;;;;;14.35;7.90;;;16.60;99.90;;;;;;5112028;28;20179;-50
2023/06/30 03:41:34;;;;;;;15.98;7.97;;;16.60;99.90;;;;;;5112175;28;20164;-50
2023/06/30 03:43:59;;;;;;;10.82;7.55;;;17.10;99.90;;;;;;5112263;28;20174;-50
2023/06/30 03:46:25;;;;;;;16.17;8.50;;;;;;;;;;5112009;28;20637;-50
2023/06/30 03:48:51;;;;;;;14.60;8.02;;;16.20;99.90;;;;;;5111977;28;20531;-50
2023/06/30 03:51:17;;;;;;;13.20;8.18;;;16.70;99.90;;;;;;5112059;28;20161;-50
2023/06/30 03:53:42;;;;;;;18.27;8.40;;;16.60;99.90;;;;;;5112256;28;20218;-50
2023/06/30 03:56:08;;;;;;;13.15;8.07;;;16.40;99.90;;;;;;5112115;28;20164;-50
2023/06/30 03:58:34;;;;;;;15.02;7.32;;;16.60;99.90;;;;;;5111964;28;20573;-50
2023/06/30 04:00:59;;;;;;;15.65;8.38;;;16.60;99.90;;;;;;5111754;28;20165;-50
2023/06/30 04:03:25;;;;;;;18.15;8.43;;;16.70;99.90;;;;;;5111821;28;20199;-50
2023/06/30 04:05:51;;;;;;;16.85;7.45;;;16.40;99.90;;;;;;5111772;28;20209;-50
2023/06/30 04:08:17;;;;;;;14.70;6.53;;;;;;;;;;5111774;28;20169;-50
2023/06/30 04:10:43;;;;;;;18.48;7.10;;;16.10;99.90;;;;;;5112059;28;20244;-50
2023/06/30 04:13:09;;;;;;;13.65;7.05;;;16.50;99.90;;;;;;5113236;28;20206;-50
2023/06/30 04:15:35;;;;;;;12.95;6.05;;;16.50;99.90;;;;;;5115885;28;20160;-50
2023/06/30 04:18:01;;;;;;;16.67;5.78;;;16.40;99.90;;;;;;5115793;28;20172;-50
2023/06/30 04:20:26;;;;;;;14.23;5.40;;;16.60;99.90;;;;;;5097515;28;20164;-50
2023/06/30 04:22:52;;;;;;;12.70;6.05;;;;;;;;;;5115667;28;20638;-50
2023/06/30 04:25:18;;;;;;;15.57;6.25;;;16.40;99.90;;;;;;5115615;28;20232;-50
2023/06/30 04:27:44;;;;;;;13.88;5.93;;;;;;;;;;5097708;28;20169;-50
2023/06/30 04:30:10;;;;;;;14.68;5.72;;;16.60;99.90;;;;;;5115918;28;20253;-50
2023/06/30 04:32:36;;;;;;;14.40;6.18;;;16.50;99.90;;;;;;5115402;28;20238;-50
2023/06/30 04:35:02;;;;;;;22.08;6.35;;;16.80;99.90;;;;;;5115499;28;20177;-50
2023/06/30 04:37:30;;;;;;;17.65;5.47;;;16.40;99.90;;;;;;5115290;28;20173;-50
2023/06/30 04:39:57;;;;;;;13.90;5.57;;;16.50;99.90;;;;;;5115426;28;20161;-50
2023/06/30 04:42:22;;;;;;;13.18;5.20;;;16.50;99.90;;;;;;5115385;28;20171;-50
2023/06/30 04:44:48;;;;;;;18.23;4.95;;;16.60;99.90;;;;;;5115293;28;20165;-50
2023/06/30 04:47:15;;;;;;;16.58;5.25;;;16.70;99.90;;;;;;5115680;28;20167;-50
2023/06/30 04:49:41;;;;;;;17.30;5.63;;;;;;;;;;5115556;28;20172;-50
2023/06/30 04:52:07;;;;;;;19.50;5.60;;;16.80;99.90;;;;;;5114889;28;20501;-54
2023/06/30 04:54:32;;;;;;;15.50;5.15;;;16.60;99.90;;;;;;5115411;28;20207;-52
2023/06/30 04:56:58;;;;;;;16.40;4.57;;;16.40;99.90;;;;;;5115337;28;20165;-51
2023/06/30 04:59:23;;;;;;;13.90;4.50;;;16.70;99.90;;;;;;5115116;28;20169;-50
2023/06/30 05:01:49;;;;;;;10.05;4.22;;;16.60;99.90;;;;;;5115175;28;20168;-50
2023/06/30 05:04:16;;;;;;;10.88;4.50;;;17.40;99.90;;;;;;5114808;28;20172;-50
2023/06/30 05:06:41;;;;;;;13.20;4.30;;;16.70;99.90;;;;;;5115318;28;20176;-50
2023/06/30 05:09:07;;;;;;;14.02;4.55;;;16.90;99.90;;;;;;5114549;28;20232;-50
2023/06/30 05:11:32;;;;;;;14.13;4.57;;;16.90;99.90;;;;;;5114687;28;20164;-50
2023/06/30 05:13:58;;;;;;;13.07;4.10;;;16.30;99.90;;;;;;5114733;28;20200;-50
2023/06/30 05:16:23;;;;;;;14.48;4.25;;;17.10;99.90;;;;;;5114626;28;20156;-50
2023/06/30 05:18:49;;;;;;;16.23;5.18;;;;;;;;;;5114627;28;20535;-50
2023/06/30 05:21:15;;;;;;;18.00;4.40;;;17.30;99.90;;;;;;5096407;28;20519;-50
2023/06/30 05:23:41;;;;;;;14.65;4.40;;;16.80;99.90;;;;;;5114667;28;20226;-50
2023/06/30 05:26:06;;;;;;;13.88;5.00;;;17.30;99.90;;;;;;5113785;28;20161;-50
2023/06/30 05:28:34;;;;;;;16.42;4.50;;;17.70;99.90;;;;;;5114359;28;20173;-50
2023/06/30 05:31:00;;;;;;;14.90;4.90;;;;;;;;;;5114419;28;20624;-50
2023/06/30 05:33:26;;;;;;;20.08;4.95;;;17.40;99.90;;;;;;5114230;28;20204;-50
2023/06/30 05:35:52;;;;;;;15.90;4.63;;;;;;;;;;5114183;28;20169;-50
2023/06/30 05:38:17;;;;;;;16.75;4.90;;;17.00;99.90;;;;;;5113035;28;20313;-50
2023/06/30 05:40:43;;;;;;;15.90;5.60;;;;;;;;;;5114366;28;20172;-50
2023/06/30 05:43:09;;;;;;;13.18;4.68;;;16.90;99.90;;;;;;5113906;28;20257;-50
2023/06/30 05:45:35;;;;;;;18.00;5.40;;;17.20;99.90;;;;;;5113895;28;20248;-50
2023/06/30 05:48:01;;;;;;;11.85;4.97;;;17.10;99.90;;;;;;5113869;28;20298;-50
2023/06/30 05:50:27;;;;;;;15.38;5.57;;;17.30;99.90;;;;;;5095591;28;20251;-50
2023/06/30 05:52:53;;;;;;;12.82;4.60;;;17.30;99.90;;;;;;5113994;28;20223;-50
2023/06/30 05:55:18;;;;;;;20.42;5.47;;;17.20;99.90;;;;;;5113868;28;20636;-50
2023/06/30 05:57:44;;;;;;;15.85;5.88;;;;;;;;;;5113941;28;20620;-50
2023/06/30 06:00:11;;;;;;;12.07;5.18;;;17.80;99.90;;;;;;5114304;28;20245;-50
2023/06/30 06:02:36;;;;;;;8.98;5.53;;;18.10;99.90;;;;;;5113939;28;20177;-50
2023/06/30 06:05:02;;;;;;;15.48;4.45;;;17.90;99.90;;;;;;5113868;28;20193;-50
2023/06/30 06:07:28;;;;;;;11.40;4.43;;;18.20;99.90;;;;;;5114002;28;20214;-50
2023/06/30 06:09:53;;;;;;;11.95;5.18;;;17.80;99.90;;;;;;5113601;28;20549;-50
2023/06/30 06:12:19;;;;;;;7.55;3.35;;;17.60;99.90;;;;;;5113583;28;20183;-50
2023/06/30 06:14:44;;;;;;;12.18;3.97;;;18.20;99.90;;;;;;5113530;28;20247;-50
2023/06/30 06:17:11;;;;;;;12.65;4.60;;;;;;;;;;5113943;28;20247;-50
2023/06/30 06:19:36;;;;;;;12.00;4.57;;;18.20;99.90;;;;;;5113607;28;20172;-50
2023/06/30 06:22:02;;;;;;;10.65;4.03;;;18.20;99.90;;;;;;5113379;28;20616;-50
2023/06/30 06:24:27;;;;;;;12.93;4.22;;;18.20;99.90;;;;;;5113325;28;20615;-51
2023/06/30 06:26:53;;;;;;;10.75;4.03;;;18.60;99.90;;;;;;5113259;28;20160;-50
2023/06/30 06:29:21;;;;;;;12.32;3.88;;;18.20;99.90;;;;;;5113352;28;20247;-50
2023/06/30 06:31:49;;;;;;;14.70;3.88;;;18.80;99.90;;;;;;5094985;28;20215;-50
2023/06/30 06:34:16;;;;;;;11.52;4.30;;;18.90;99.90;;;;;;5113070;28;20215;-50
2023/06/30 06:36:42;;;;;;;5.05;3.00;;;18.70;99.90;;;;;;5113186;28;20506;-50
2023/06/30 06:39:07;;;;;;;6.28;3.42;;;18.80;99.90;;;;;;5113076;28;20160;-50
2023/06/30 06:41:33;;;;;;;8.85;3.67;;;19.10;99.90;;;;;;5112985;28;20203;-50
2023/06/30 06:43:59;;;;;;;9.75;3.88;;;;;;;;;;5113198;28;20176;-51
2023/06/30 06:46:25;;;;;;;10.68;3.88;;;;;;;;;;5110468;28;20179;-52
2023/06/30 06:48:51;;;;;;;8.93;3.78;;;;;;;;;;5111127;28;20171;-51
2023/06/30 06:51:17;;;;;;;7.95;3.20;;;19.10;99.90;;;;;;5111291;28;20530;-51
2023/06/30 06:53:42;;;;;;;10.63;2.40;;;19.10;99.90;;;;;;5111288;28;20693;-51
2023/06/30 06:56:08;;;;;;;6.93;2.85;;;;;;;;;;5110965;28;20168;-51
2023/06/30 06:58:35;;;;;;;7.85;2.63;;;18.90;99.90;;;;;;5092566;28;20530;-51
2023/06/30 07:01:01;;;;;;;11.10;2.50;;;18.80;99.90;;;;;;5111162;28;20201;-51
2023/06/30 07:03:27;;;;;;;10.88;3.15;;;;;;;;;;5110896;28;20204;-51
2023/06/30 07:05:55;;;;;;;8.48;2.78;;;18.70;99.90;;;;;;5110970;28;20180;-50
2023/06/30 07:08:21;;;;;;;9.38;2.83;;;;;;;;;;5110789;28;20172;-51
2023/06/30 07:10:47;;;;;;;4.60;2.65;;;18.70;99.90;;;;;;5110480;28;20404;-52
2023/06/30 07:13:17;;;;;;;7.88;2.35;;;18.70;99.90;;;;;;5110451;28;20222;-52
2023/06/30 07:15:44;;;;;;;7.82;3.25;;;18.60;99.90;;;;;;5111047;28;20176;-53
2023/06/30 07:18:10;;;;;;;6.15;2.90;;;18.70;99.90;;;;;;5111270;28;20195;-53
2023/06/30 07:20:36;;;;;;;7.88;2.47;;;18.90;99.90;;;;;;5110726;28;20204;-57
2023/06/30 07:23:01;;;;;;;6.85;2.50;;;18.90;99.90;;;;;;5110490;28;20160;-53
2023/06/30 07:25:27;;;;;;;6.07;3.10;;;19.10;99.90;;;;;;5110405;28;20168;-52
2023/06/30 07:27:55;;;;;;;3.35;1.92;;;19.00;99.90;;;;;;5110805;28;20165;-53
2023/06/30 07:30:23;;;;;;;6.32;2.65;;;19.00;99.90;;;;;;5110757;28;20164;-53
2023/06/30 07:32:49;;;;;;;5.45;3.20;;;19.20;99.90;;;;;;5110271;28;20215;-52
2023/06/30 07:35:18;;;;;;;6.80;2.55;;;19.20;99.90;;;;;;5110228;28;20180;-52
2023/06/30 07:37:48;;;;;;;6.22;2.30;;;19.30;99.90;;;;;;5110391;28;20165;-52
2023/06/30 07:40:14;;;;;;;5.18;1.92;;;19.30;99.90;;;;;;5110687;28;20173;-52
2023/06/30 07:42:40;;;;;;;4.15;1.90;;;19.30;99.90;;;;;;5110652;28;20225;-52
2023/06/30 07:45:10;;;;;;;7.82;2.17;;;19.50;99.90;;;;;;5110488;28;20169;-52
2023/06/30 07:47:36;;;;;;;4.95;1.77;;;19.50;99.90;;;;;;5109377;28;20164;-52
2023/06/30 07:50:09;;;;;;;5.32;1.45;;;19.40;99.90;;;;;;5109993;28;20156;-52
2023/06/30 07:52:39;;;;;;;4.10;1.70;;;19.40;99.90;;;;;;5109986;28;20188;-52
2023/06/30 07:55:05;;;;;;;2.90;1.80;;;19.60;99.90;;;;;;5109411;28;20176;-52
2023/06/30 07:57:31;;;;;;;6.35;1.80;;;19.60;99.90;;;;;;5109984;28;20167;-52
2023/06/30 07:59:56;;;;;;;6.72;2.17;;;19.80;99.90;;;;;;5110120;28;20168;-51
2023/06/30 08:02:22;;;;;;;5.10;1.92;;;19.80;99.90;;;;;;5110156;28;20172;-52
2023/06/30 08:04:47;;;;;;;4.55;1.98;;;19.80;99.90;;;;;;5110152;28;20176;-51
2023/06/30 08:07:13;;;;;;;4.03;1.50;;;19.80;99.90;;;;;;5110507;28;20617;-51
2023/06/30 08:09:38;;;;;;;5.40;1.48;;;19.90;99.90;;;;;;5110213;28;20220;-52
2023/06/30 08:12:04;;;;;;;3.15;1.50;;;20.00;99.90;;;;;;5110009;28;20255;-52
2023/06/30 08:14:30;;;;;;;6.28;1.98;;;20.00;99.90;;;;;;5110002;28;20208;-51
2023/06/30 08:16:55;;;;;;;4.93;1.60;;;20.00;99.90;;;;;;5109999;28;20165;-51
2023/06/30 08:19:21;;;;;;;4.32;1.98;;;20.10;99.90;;;;;;5109910;28;20176;-52
2023/06/30 08:21:47;;;;;;;4.03;1.80;;;20.00;99.90;;;;;;5109775;28;20179;-52
2023/06/30 08:24:12;;;;;;;3.40;1.98;;;20.20;99.90;;;;;;5110454;28;20196;-51
2023/06/30 08:26:38;;;;;;;3.92;1.83;;;20.20;99.90;;;;;;5109920;28;20196;-52
2023/06/30 08:29:03;;;;;;;3.83;1.70;;;20.20;99.90;;;;;;5109713;28;20172;-52
2023/06/30 08:31:30;;;;;;;4.07;1.92;;;20.30;99.90;;;;;;5110144;28;20169;-52
2023/06/30 08:33:56;;;;;;;2.58;1.90;;;20.10;99.90;;;;;;5109918;28;20227;-52
2023/06/30 08:36:22;;;;;;;4.65;2.30;;;20.30;99.90;;;;;;5109809;28;20616;-52
2023/06/30 08:38:48;;;;;;;4.93;2.17;;;20.40;99.90;;;;;;5109703;28;20179;-51
2023/06/30 08:41:15;;;;;;;4.70;1.77;;;20.60;99.90;;;;;;5109701;28;20496;-51
2023/06/30 08:43:41;;;;;;;3.95;1.90;;;20.80;99.90;;;;;;5091721;28;20637;-52
2023/06/30 08:46:08;;;;;;;4.18;1.70;;;20.90;99.90;;;;;;5109823;28;20259;-52
2023/06/30 08:48:36;;;;;;;5.75;1.92;;;20.80;99.90;;;;;;5110124;28;20181;-52
2023/06/30 08:51:02;;;;;;;2.97;1.48;;;20.90;99.90;;;;;;5109714;28;20199;-51
2023/06/30 08:53:29;;;;;;;3.63;1.88;;;21.00;99.90;;;;;;5109703;28;20204;-51
2023/06/30 08:55:57;;;;;;;5.25;2.00;;;21.20;99.90;;;;;;5109749;28;20161;-51
2023/06/30 08:58:25;;;;;;;4.72;1.60;;;21.20;99.90;;;;;;5109871;28;20161;-52
2023/06/30 09:00:50;;;;;;;4.07;2.35;;;21.20;99.90;;;;;;5095210;28;20569;-51
2023/06/30 09:03:16;;;;;;;5.40;1.83;;;21.30;99.90;;;;;;5113233;28;20164;-51
2023/06/30 09:05:43;;;;;;;4.85;1.75;;;21.40;99.90;;;;;;5113632;28;20685;-52
2023/06/30 09:08:17;;;;;;;3.08;1.73;;;21.60;99.90;;;;;;5095167;28;20528;-52
2023/06/30 09:10:43;;;;;;;3.45;1.77;;;21.70;99.90;;;;;;5112973;28;20204;-52
2023/06/30 09:13:10;;;;;;;4.60;1.80;;;21.60;99.90;;;;;;5113194;28;20212;-52
2023/06/30 09:15:39;;;;;;;3.72;1.42;;;21.80;99.90;;;;;;5113098;28;20251;-52
2023/06/30 09:18:05;;;;;;;3.97;1.90;;;21.90;99.90;;;;;;5112851;28;20168;-52
2023/06/30 09:20:30;;;;;;;4.00;1.70;;;22.00;99.90;;;;;;5112854;28;20168;-52
2023/06/30 09:22:57;;;;;;;4.75;1.80;;;22.10;99.90;;;;;;5113236;28;20174;-51
2023/06/30 09:25:25;;;;;;;6.22;2.22;;;22.30;99.90;;;;;;5112736;28;20203;-52
2023/06/30 09:27:51;;;;;;;4.70;1.88;;;22.50;99.90;;;;;;5113015;28;20179;-52
2023/06/30 09:30:17;;;;;;;4.93;1.90;;;22.70;99.90;;;;;;5113090;28;20171;-52
2023/06/30 09:32:43;;;;;;;4.00;1.95;;;22.70;99.90;;;;;;5112917;28;20204;-54
2023/06/30 09:35:14;;;;;;;5.88;1.90;;;21.70;99.90;;;;;;5113206;28;20172;-54
2023/06/30 09:37:41;;;;;;;5.57;1.80;;;22.90;99.90;;;;;;5113091;28;20160;-53
2023/06/30 09:40:23;;;;;;;5.95;1.70;;;22.70;99.90;;;;;;5112569;28;20637;-54
2023/06/30 09:42:53;;;;;;;8.77;2.30;;;22.70;99.90;;;;;;5112453;28;20704;-53
2023/06/30 09:45:18;;;;;;;3.00;1.60;;;23.00;99.90;;;;;;5112023;28;20263;-53
2023/06/30 09:47:53;;;;;;;7.70;2.08;;;23.10;99.90;;;;;;5112064;28;20556;-53
2023/06/30 09:50:27;;;;;;;3.40;1.67;;;23.30;99.90;;;;;;5112540;28;20218;-54
2023/06/30 09:52:53;;;;;;;5.20;2.08;;;23.20;99.90;;;;;;5112325;28;20192;-53
2023/06/30 09:55:18;;;;;;;3.55;1.75;;;23.10;99.90;;;;;;5112260;28;20165;-54
2023/06/30 09:57:46;;;;;;;3.75;1.90;;;23.20;99.90;;;;;;5111972;28;20569;-54
2023/06/30 10:00:12;;;;;;;3.75;1.58;;;23.20;99.90;;;;;;5112665;28;20217;-54
2023/06/30 10:02:39;;;;;;;3.50;1.52;;;23.30;99.90;;;;;;5112149;28;20199;-54
2023/06/30 10:05:06;;;;;;;8.52;1.80;;;23.20;99.90;;;;;;5093806;28;20168;-51
2023/06/30 10:07:32;;;;;;;5.85;1.90;;;23.10;99.90;;;;;;5112037;28;20212;-53
2023/06/30 10:09:58;;;;;;;3.65;1.80;;;23.00;99.90;;;;;;5093402;28;20251;-53
2023/06/30 10:12:24;;;;;;;2.45;1.70;;;23.30;99.90;;;;;;5111473;28;20245;-51
2023/06/30 10:14:51;;;;;;;4.53;1.70;;;23.30;99.90;;;;;;5111730;28;20305;-51
2023/06/30 10:17:17;;;;;;;3.40;1.52;;;23.30;99.90;;;;;;5111936;28;20172;-51
2023/06/30 10:19:43;;;;;;;7.22;1.98;;;23.60;99.50;;;;;;5112225;28;20161;-51
2023/06/30 10:22:08;;;;;;;2.92;1.52;;;23.90;99.90;;;;;;5112339;28;20173;-53
2023/06/30 10:24:37;;;;;;;3.50;1.80;;;23.90;99.80;;;;;;5111559;28;20160;-51
2023/06/30 10:27:07;;;;;;;4.75;1.90;;;23.90;99.70;;;;;;5112041;28;20172;-51
2023/06/30 10:29:34;;;;;;;5.03;1.90;;;24.00;97.60;;;;;;5111140;28;20271;-51
2023/06/30 10:32:00;;;;;;;3.63;1.73;;;24.00;96.50;;;;;;5111312;28;20499;-51
2023/06/30 10:34:28;;;;;;;4.28;1.60;;;23.90;96.60;;;;;;5111508;28;20203;-51
2023/06/30 10:36:53;;;;;;;4.03;1.60;;;24.40;99.30;;;;;;5111357;28;20188;-51
2023/06/30 10:39:19;;;;;;;4.78;1.77;;;24.50;95.70;;;;;;5111336;28;20253;-53
2023/06/30 10:41:47;;;;;;;3.03;1.58;;;24.30;96.40;;;;;;5111321;28;20161;-53
2023/06/30 10:44:13;;;;;;;3.58;1.80;;;24.40;95.50;;;;;;5111348;28;20248;-53
2023/06/30 10:46:48;;;;;;;2.95;1.83;;;24.30;97.50;;;;;;5111742;28;20255;-53
2023/06/30 10:49:19;;;;;;;4.10;1.60;;;24.40;97.10;;;;;;5111404;28;20159;-52
2023/06/30 10:51:49;;;;;;;4.50;2.00;;;24.30;96.20;;;;;;5110960;28;20580;-53
2023/06/30 10:54:26;;;;;;;3.75;1.92;;;24.40;95.40;;;;;;5111078;28;20208;-53
2023/06/30 10:57:05;;;;;;;3.40;1.42;;;24.40;97.20;;;;;;5111068;28;20167;-54
2023/06/30 10:59:40;;;;;;;5.60;1.92;;;24.50;96.80;;;;;;5110618;28;20164;-53
2023/06/30 11:02:13;;;;;;;4.10;1.92;;;24.60;96.00;;;;;;5110882;28;20175;-53
2023/06/30 11:04:41;;;;;;;4.07;1.33;;;24.80;93.50;;;;;;5111288;28;20276;-53
2023/06/30 11:07:07;;;;;;;2.58;1.45;;;25.20;94.40;;;;;;5111077;28;20180;-54
2023/06/30 11:09:48;;;;;;;3.50;1.77;;;25.40;95.30;;;;;;5110672;28;20265;-53
2023/06/30 11:12:18;;;;;;;4.32;1.60;;;25.30;94.50;;;;;;5111315;28;20259;-53
2023/06/30 11:14:50;;;;;;;4.40;2.10;;;25.20;93.40;;;;;;5110575;28;20207;-51
2023/06/30 11:17:15;;;;;;;2.80;1.80;;;25.20;94.40;;;;;;5110749;28;20163;-53
2023/06/30 11:19:57;;;;;;;3.58;1.50;;;25.40;93.30;;;;;;5110916;28;20535;-53
2023/06/30 11:22:32;;;;;;;3.80;1.75;;;25.60;94.30;;;;;;5109882;28;20156;-53
2023/06/30 11:25:02;;;;;;;4.38;1.70;;;25.50;93.60;;;;;;5110633;28;20175;-53
2023/06/30 11:27:31;;;;;;;3.33;1.70;;;25.30;93.20;;;;;;5110203;28;20171;-53
2023/06/30 11:30:00;;;;;;;3.28;1.80;;;25.60;92.50;;;;;;5110465;28;20195;-53
2023/06/30 11:32:30;;;;;;;4.25;1.80;;;25.50;93.40;;;;;;5110081;28;20168;-54
2023/06/30 11:34:57;;;;;;;3.25;2.13;;;25.10;93.10;;;;;;5110248;28;20160;-53
2023/06/30 11:37:23;;;;;;;3.70;1.95;;;24.90;93.20;;;;;;5110145;28;20172;-51
2023/06/30 11:39:53;;;;;;;4.30;1.88;;;25.00;93.10;;;;;;5091860;28;20168;-52
2023/06/30 11:42:21;;;;;;;5.57;2.03;;;24.90;94.50;;;;;;5109852;28;20206;-51
2023/06/30 11:44:51;;;;;;;3.58;1.80;;;24.60;93.30;;;;;;5110229;28;20171;-50
2023/06/30 11:47:18;;;;;;;4.63;2.20;;;24.80;93.70;;;;;;5110274;28;20263;-51
2023/06/30 11:49:45;;;;;;;4.68;2.15;;;24.80;93.70;;;;;;5110097;28;20187;-49
2023/06/30 11:52:11;;;;;;;4.70;2.10;;;24.60;94.20;;;;;;5110571;28;20186;-52
2023/06/30 11:54:37;;;;;;;3.75;1.77;;;24.50;94.40;;;;;;5109981;28;20569;-51
2023/06/30 11:57:04;;;;;;;6.20;2.10;;;24.30;95.40;;;;;;5109651;28;20160;-51
2023/06/30 11:59:33;;;;;;;4.22;2.05;;;24.10;94.30;;;;;;5110463;28;20176;-52
2023/06/30 12:02:02;;;;;;;5.82;2.00;;;24.30;95.10;;;;;;5110095;28;20160;-51
2023/06/30 12:04:33;;;;;;;5.25;2.17;;;24.20;94.90;;;;;;5109970;28;20224;-52
2023/06/30 12:06:58;;;;;;;2.15;1.80;;;24.10;95.90;;;;;;5110052;28;20168;-51
2023/06/30 12:09:24;;;;;;;3.65;1.88;;;23.90;95.90;;;;;;5109822;28;20216;-52
2023/06/30 12:11:50;;;;;;;5.53;1.80;;;23.40;95.50;;;;;;5109984;28;20168;-51
2023/06/30 12:14:17;;;;;;;2.65;1.88;;;23.50;96.20;;;;;;5110159;28;20261;-52
2023/06/30 12:16:49;;;;;;;4.90;2.00;;;23.40;96.20;;;;;;5110213;28;20157;-51
2023/06/30 12:19:15;;;;;;;4.45;2.13;;;23.50;98.30;;;;;;5109859;28;20172;-51
2023/06/30 12:21:59;;;;;;;4.13;2.50;;;23.50;98.80;;;;;;5110218;28;20184;-51
2023/06/30 12:24:29;;;;;;;3.25;2.08;;;23.40;98.90;;;;;;5109697;28;20157;-51
2023/06/30 12:26:55;;;;;;;4.30;1.73;;;23.70;98.80;;;;;;5109598;28;20164;-51
2023/06/30 12:29:22;;;;;;;4.10;2.55;;;23.80;98.30;;;;;;5109983;28;20169;-51
2023/06/30 12:31:47;;;;;;;3.75;2.05;;;24.10;97.20;;;;;;5109784;28;20169;-51
2023/06/30 12:34:33;;;;;;;3.13;2.00;;;24.10;95.50;;;;;;5111589;28;20608;-51
2023/06/30 12:36:59;;;;;;;4.70;2.45;;;24.40;95.40;;;;;;5113812;28;20160;-52
2023/06/30 12:39:25;;;;;;;5.82;2.92;;;24.20;94.90;;;;;;5113888;28;20530;-52
2023/06/30 12:41:51;;;;;;;5.65;2.50;;;24.00;95.30;;;;;;5095543;28;20156;-51
2023/06/30 12:44:17;;;;;;;7.40;2.20;;;23.90;95.80;;;;;;5113584;28;20349;-51
2023/06/30 12:46:42;;;;;;;5.35;2.22;;;24.10;95.50;;;;;;5113891;28;20206;-51
2023/06/30 12:49:09;;;;;;;6.07;2.30;;;24.10;95.70;;;;;;5113878;28;20534;-51
2023/06/30 12:51:35;;;;;;;5.22;1.98;;;23.90;96.00;;;;;;5113624;28;20512;-51